Airfield :
LOGIN :

Register | Disclaimer

   EN    FR    IT 

 










Legend :    VFR   Marginal VFR   IFR   Intensive IFR   Very Intensive IFR
Visi :
Ceiling :
>= 8 km
>= 3000ft
5 to 8 km
1000 to 3000 ft
1500m to 5 km
500 to 1000 ft
800 to 1500m
200 to 500 ft
< 800m
< 200 ft
Symbols :   Thunderstorms  Fog  Heavy snow  Heavy precipitations  Wind > 20 kt
SIGMETs :     Misc.  Thunderstorms  Icing  Turbulence  Mountain Waves  Volcanic Ashes






- Airport Elevation : 605 ft
- IATA code : BAY


LRBM - Tautii Magheraus

CURRENT METAR :
  • 300600Z 10003KT 9999 FEW055 06/03 Q1012

EXPIRED METARs :
  • 300530Z 00000KT CAVOK 05/02 Q1011
  • 300500Z 35002KT 330V050 CAVOK 04/02 Q1011
  • 300430Z AUTO VRB02KT 9999 SCT085/// BKN100/// 03/01 Q1011
  • 300400Z AUTO 07005KT 9999 FEW075/// BKN095/// 04/02 Q1010
  • 300330Z AUTO 05004KT 9999 BKN090/// OVC110/// 04/02 Q1011

TAF TAF LRBM
Valid from the 30 at 06:00 until the 30 at 15:00 UTC


300500Z 3006/3015 VRB04KT CAVOK
PROB30
TEMPO 3006/3009 5000 -SHRA FEW040CB
BECMG 3006/3008 32015KT
PROB30
TEMPO 3009/3014 32017G27KT



MET'MAP, your aeronautical weather chart ! - Copyright ORBIFLY December 2007 - Disclaimer

ORBIFLY MET'MAP TEAM :

Programming & Development : Alexandra Zaïnal
Concept & original design : Baudouin d'Aumeries
Assistance for programming : Marc-Olivier Méhu
Technical & hardware support : Manuel Goepfert

Contact : metmap@orbifly.com




SOURCES & CREDITS :

   NOAA